createdAt,value
2022-11-03T00:01:39.904Z,100937.97
2022-11-03T00:04:08.511Z,100927.38
2022-11-03T00:06:35.753Z,100925.59
2022-11-03T00:09:06.142Z,100928.22
2022-11-03T00:11:37.566Z,100921.13
2022-11-03T00:14:05.132Z,100920.25
2022-11-03T00:16:32.293Z,100920.25
2022-11-03T00:18:58.835Z,100915.00
2022-11-03T00:21:25.510Z,100916.75
2022-11-03T00:23:52.150Z,100910.66
2022-11-03T00:26:25.986Z,100911.56
2022-11-03T00:28:55.102Z,100909.81
2022-11-03T00:31:30.158Z,100906.34
2022-11-03T00:33:57.743Z,100913.38
2022-11-03T00:36:29.838Z,100910.84
2022-11-03T00:38:57.533Z,100903.84
2022-11-03T00:41:25.784Z,100903.91
2022-11-03T00:43:53.095Z,100906.63
2022-11-03T00:46:21.802Z,100906.72
2022-11-03T00:48:48.606Z,100903.38
2022-11-03T00:51:17.880Z,100890.31
2022-11-03T00:53:52.409Z,100897.50
2022-11-03T00:56:22.173Z,100899.38
2022-11-03T00:58:49.997Z,100888.03
2022-11-03T01:01:19.668Z,100888.91
2022-11-03T01:04:07.590Z,100887.28
2022-11-03T01:06:51.655Z,100884.72
2022-11-03T01:09:20.934Z,100887.41
2022-11-03T01:11:57.754Z,100887.44
2022-11-03T01:14:26.644Z,100890.97
2022-11-03T01:16:53.192Z,100881.31
2022-11-03T01:19:20.453Z,100889.22
2022-11-03T01:21:46.980Z,100881.31
2022-11-03T01:24:15.380Z,100891.00
2022-11-03T01:26:42.081Z,100878.72
2022-11-03T01:29:08.615Z,100878.72
2022-11-03T01:31:35.170Z,100877.84
2022-11-03T01:34:01.727Z,100865.66
2022-11-03T01:36:28.383Z,100868.31
2022-11-03T01:38:56.524Z,100867.47
2022-11-03T01:41:27.050Z,100862.25
2022-11-03T01:44:08.747Z,100862.25
2022-11-03T01:46:48.834Z,100861.41
2022-11-03T01:49:28.149Z,100855.28
2022-11-03T01:52:06.059Z,100852.66
2022-11-03T01:54:36.666Z,100847.41
2022-11-03T01:57:10.769Z,100837.75
2022-11-03T01:59:38.577Z,100833.31
2022-11-03T02:02:05.377Z,100827.22
2022-11-03T02:04:33.941Z,100826.31
2022-11-03T02:07:26.365Z,100826.31
2022-11-03T02:09:52.953Z,100817.53
2022-11-03T02:12:22.019Z,100819.28
2022-11-03T02:14:57.429Z,100810.50
2022-11-03T02:17:27.610Z,100805.19
2022-11-03T02:19:59.817Z,100801.66
2022-11-03T02:22:51.803Z,100797.25
2022-11-03T02:25:34.377Z,100793.75
2022-11-03T02:28:02.655Z,100787.56
2022-11-03T02:30:38.731Z,100785.84
2022-11-03T02:33:20.463Z,100777.91
2022-11-03T02:35:54.919Z,100775.34
2022-11-03T02:38:24.147Z,100769.25
2022-11-03T02:40:55.544Z,100766.63
2022-11-03T02:43:25.365Z,100768.41
2022-11-03T02:45:52.990Z,100770.16
2022-11-03T02:48:19.603Z,100770.16
2022-11-03T02:50:47.841Z,100767.53
2022-11-03T02:53:15.920Z,100757.00
2022-11-03T02:56:00.755Z,100767.53
2022-11-03T02:58:37.395Z,100769.34
2022-11-03T03:01:19.327Z,100773.75
2022-11-03T03:03:50.064Z,100759.72
2022-11-03T03:06:22.550Z,100764.09
2022-11-03T03:08:55.484Z,100760.50
2022-11-03T03:11:37.545Z,100763.06
2022-11-03T03:14:18.670Z,100764.75
2022-11-03T03:16:51.804Z,100762.00
2022-11-03T03:19:23.741Z,100754.94
2022-11-03T03:21:54.657Z,100753.09
2022-11-03T03:24:46.317Z,100742.50
2022-11-03T03:27:16.592Z,100744.25
2022-11-03T03:29:49.276Z,100742.56
2022-11-03T03:32:20.270Z,100735.53
2022-11-03T03:34:49.691Z,100740.84
2022-11-03T03:37:17.807Z,100727.69
2022-11-03T03:39:50.943Z,100727.69
2022-11-03T03:42:20.827Z,100727.75
2022-11-03T03:44:48.475Z,100718.94
2022-11-03T03:47:21.081Z,100725.09
2022-11-03T03:49:47.692Z,100710.22
2022-11-03T03:52:15.233Z,100716.31
2022-11-03T03:54:41.767Z,100708.41
2022-11-03T03:57:15.781Z,100709.31
2022-11-03T03:59:45.363Z,100702.34
2022-11-03T04:02:12.999Z,100700.59
2022-11-03T04:04:39.910Z,100706.72
2022-11-03T04:07:25.662Z,100695.34
2022-11-03T04:09:52.244Z,100696.25
2022-11-03T04:12:37.437Z,100692.75
2022-11-03T04:15:23.129Z,100691.00
2022-11-03T04:18:09.016Z,100686.59
2022-11-03T04:20:54.553Z,100690.16
2022-11-03T04:23:21.040Z,100670.88
2022-11-03T04:25:53.316Z,100680.53
2022-11-03T04:28:20.161Z,100676.16
2022-11-03T04:30:47.183Z,100684.91
2022-11-03T04:33:22.741Z,100677.84
2022-11-03T04:35:49.917Z,100667.31
2022-11-03T04:38:23.939Z,100663.84
2022-11-03T04:40:55.337Z,100655.03
2022-11-03T04:43:29.893Z,100659.38
2022-11-03T04:45:56.443Z,100649.78
2022-11-03T04:48:23.879Z,100645.41
2022-11-03T04:50:54.041Z,100644.53
2022-11-03T04:53:22.369Z,100647.19
2022-11-03T04:55:53.103Z,100638.47
2022-11-03T04:58:24.579Z,100638.50
2022-11-03T05:00:54.132Z,100625.41
2022-11-03T05:03:27.188Z,100626.38
2022-11-03T05:05:53.822Z,100622.09
2022-11-03T05:08:21.697Z,100622.16
2022-11-03T05:10:49.700Z,100623.09
2022-11-03T05:13:27.639Z,100619.63
2022-11-03T05:16:05.352Z,100617.03
2022-11-03T05:18:36.835Z,100610.88
2022-11-03T05:21:07.463Z,100610.00
2022-11-03T05:23:40.526Z,100611.84
2022-11-03T05:26:14.088Z,100617.97
2022-11-03T05:28:50.668Z,100617.06
2022-11-03T05:31:24.005Z,100604.81
2022-11-03T05:33:52.258Z,100612.78
2022-11-03T05:36:24.711Z,100600.56
2022-11-03T05:38:58.639Z,100605.03
2022-11-03T05:41:29.615Z,100599.81
2022-11-03T05:44:02.844Z,100596.34
2022-11-03T05:46:32.271Z,100598.09
2022-11-03T05:49:02.504Z,100598.13
2022-11-03T05:51:33.701Z,100588.53
2022-11-03T05:54:04.625Z,100585.03
2022-11-03T05:56:33.170Z,100591.25
2022-11-03T05:59:01.541Z,100579.06
2022-11-03T06:01:34.680Z,100583.56
2022-11-03T06:04:15.332Z,100588.09
2022-11-03T06:06:42.258Z,100590.78
2022-11-03T06:09:22.848Z,100590.00
2022-11-03T06:11:52.954Z,100587.41
2022-11-03T06:14:25.013Z,100591.91
2022-11-03T06:17:05.903Z,100589.34
2022-11-03T06:19:39.393Z,100589.41
2022-11-03T06:22:36.561Z,100588.56
2022-11-03T06:25:33.668Z,100587.78
2022-11-03T06:28:03.081Z,100590.47
2022-11-03T06:30:32.590Z,100591.41
2022-11-03T06:33:10.627Z,100579.19
2022-11-03T06:35:37.283Z,100585.44
2022-11-03T06:38:12.269Z,100582.03
2022-11-03T06:40:39.191Z,100581.25
2022-11-03T06:43:14.918Z,100583.09
2022-11-03T06:45:49.743Z,100577.09
2022-11-03T06:48:21.833Z,100575.59
2022-11-03T06:50:48.386Z,100574.94
2022-11-03T06:53:21.928Z,100563.69
2022-11-03T06:55:48.914Z,100569.09
2022-11-03T06:58:28.128Z,100575.38
2022-11-03T07:01:03.551Z,100567.63
2022-11-03T07:03:33.309Z,100567.78
2022-11-03T07:06:26.163Z,100561.75
2022-11-03T07:08:58.883Z,100567.13
2022-11-03T07:11:35.627Z,100564.63
2022-11-03T07:14:15.279Z,100562.09
2022-11-03T07:16:48.514Z,100570.13
2022-11-03T07:19:41.381Z,100560.56
2022-11-03T07:22:17.171Z,100563.28
2022-11-03T07:24:46.760Z,100559.91
2022-11-03T07:27:26.384Z,100558.28
2022-11-03T07:29:58.611Z,100556.63
2022-11-03T07:32:31.413Z,100550.56
2022-11-03T07:35:05.783Z,100548.91
2022-11-03T07:37:32.385Z,100552.56
2022-11-03T07:39:59.037Z,100548.31
2022-11-03T07:42:27.348Z,100539.63
2022-11-03T07:44:59.518Z,100537.94
2022-11-03T07:47:27.724Z,100532.78
2022-11-03T07:49:55.872Z,100532.91
2022-11-03T07:52:24.755Z,100526.84
2022-11-03T07:54:54.916Z,100519.97
2022-11-03T07:57:30.608Z,100512.16
2022-11-03T08:00:03.878Z,100510.50
2022-11-03T08:02:54.959Z,100501.78
2022-11-03T08:05:22.238Z,100493.94
2022-11-03T08:07:48.864Z,100494.03
2022-11-03T08:10:15.649Z,100479.16
2022-11-03T08:12:42.764Z,100481.94
2022-11-03T08:15:10.016Z,100475.84
2022-11-03T08:17:36.530Z,100472.44
2022-11-03T08:20:03.087Z,100461.94
2022-11-03T08:22:29.980Z,100457.59
2022-11-03T08:24:56.499Z,100456.81
2022-11-03T08:27:23.185Z,100458.59
2022-11-03T08:29:49.729Z,100444.53
2022-11-03T08:32:16.248Z,100444.56
2022-11-03T08:34:42.749Z,100441.09
2022-11-03T08:37:09.260Z,100439.34
2022-11-03T08:39:36.232Z,100430.56
2022-11-03T08:42:02.920Z,100423.53
2022-11-03T08:44:29.502Z,100423.56
2022-11-03T08:46:56.141Z,100424.53
2022-11-03T08:49:22.720Z,100421.91
2022-11-03T08:51:49.283Z,100415.72
2022-11-03T08:54:15.881Z,100419.31
2022-11-03T08:56:43.830Z,100414.91
2022-11-03T08:59:10.306Z,100406.13
2022-11-03T09:01:36.875Z,100412.31
2022-11-03T09:04:03.763Z,100410.53
2022-11-03T09:06:30.342Z,100395.53
2022-11-03T09:11:43.356Z,100389.31
2022-11-03T09:14:09.822Z,100377.84
2022-11-03T09:16:36.388Z,100378.72
2022-11-03T09:19:03.133Z,100379.66
2022-11-03T09:21:29.663Z,100377.88
2022-11-03T09:23:56.322Z,100374.34
2022-11-03T09:26:22.878Z,100372.59
2022-11-03T09:28:49.634Z,100370.84
2022-11-03T09:31:16.774Z,100366.44
2022-11-03T09:33:43.358Z,100369.97
2022-11-03T09:36:09.985Z,100356.72
2022-11-03T09:38:36.617Z,100362.03
2022-11-03T09:41:13.516Z,100360.28
2022-11-03T09:43:52.162Z,100357.63
2022-11-03T09:46:19.331Z,100352.31
2022-11-03T09:48:46.187Z,100349.66
2022-11-03T09:51:18.694Z,100350.59
2022-11-03T09:53:45.374Z,100356.78
2022-11-03T09:56:12.059Z,100360.31
2022-11-03T09:58:38.702Z,100354.16
2022-11-03T10:01:06.061Z,100347.06
2022-11-03T10:03:32.723Z,100344.44
2022-11-03T10:05:59.483Z,100347.97
2022-11-03T10:08:29.645Z,100344.44
2022-11-03T10:10:57.196Z,100342.69
2022-11-03T10:13:38.969Z,100340.00
2022-11-03T10:16:08.999Z,100335.63
2022-11-03T10:18:36.595Z,100321.44
2022-11-03T10:21:14.460Z,100323.22
2022-11-03T10:23:41.053Z,100317.91
2022-11-03T10:26:14.007Z,100319.69
2022-11-03T10:28:58.171Z,100323.22
2022-11-03T10:31:40.760Z,100314.38
2022-11-03T10:34:33.581Z,100313.47
2022-11-03T10:37:25.243Z,100306.41
2022-11-03T10:39:54.005Z,100295.78
2022-11-03T10:42:34.995Z,100296.66
2022-11-03T10:45:22.864Z,100294.88
2022-11-03T10:48:04.984Z,100275.38
2022-11-03T10:50:31.576Z,100278.88
2022-11-03T10:52:58.356Z,100272.63
2022-11-03T10:55:28.264Z,100253.09
2022-11-03T10:57:58.137Z,100257.44
2022-11-03T11:00:25.245Z,100264.41
2022-11-03T11:02:58.653Z,100263.44
2022-11-03T11:05:25.220Z,100266.09
2022-11-03T11:07:54.994Z,100260.66
2022-11-03T11:10:24.559Z,100242.81
2022-11-03T11:13:17.890Z,100237.34
2022-11-03T11:16:01.461Z,100234.56
2022-11-03T11:18:30.820Z,100227.38
2022-11-03T11:21:02.986Z,100228.16
2022-11-03T11:23:29.445Z,100225.38
2022-11-03T11:26:27.250Z,100220.81
2022-11-03T11:29:09.359Z,100210.06
2022-11-03T11:31:42.318Z,100205.56
2022-11-03T11:34:09.457Z,100199.34
2022-11-03T11:36:37.903Z,100189.53
2022-11-03T11:39:28.104Z,100189.53
2022-11-03T11:42:08.360Z,100176.19
2022-11-03T11:44:43.973Z,100175.19
2022-11-03T11:47:49.204Z,100174.22
2022-11-03T11:50:25.723Z,100168.88
2022-11-03T11:53:07.816Z,100161.84
2022-11-03T11:55:42.915Z,100150.38
2022-11-03T11:58:39.064Z,100142.44
2022-11-03T12:01:21.938Z,100139.78
2022-11-03T12:03:50.689Z,100133.56
2022-11-03T12:06:17.390Z,100132.66
2022-11-03T12:08:44.332Z,100130.84
2022-11-03T12:11:14.288Z,100125.50
2022-11-03T12:13:51.400Z,100130.88
2022-11-03T12:16:38.142Z,100113.13
2022-11-03T12:19:37.187Z,100107.78
2022-11-03T12:22:11.907Z,100099.75
2022-11-03T12:24:51.747Z,100093.44
2022-11-03T12:27:24.026Z,100081.78
2022-11-03T12:29:51.708Z,100078.19
2022-11-03T12:32:33.038Z,100076.31
2022-11-03T12:35:08.977Z,100065.59
2022-11-03T12:37:36.248Z,100068.25
2022-11-03T12:40:03.530Z,100059.47
2022-11-03T12:42:33.134Z,100063.94
2022-11-03T12:45:00.010Z,100059.53
2022-11-03T12:47:26.939Z,100048.06
2022-11-03T12:49:53.800Z,100029.41
2022-11-03T12:52:20.443Z,100033.88
2022-11-03T12:54:47.569Z,100032.09
2022-11-03T12:57:14.736Z,100024.13
2022-11-03T12:59:41.249Z,100003.72
2022-11-03T13:02:10.544Z,100005.56
2022-11-03T13:04:38.219Z,100003.81
2022-11-03T13:07:05.627Z,99998.53
2022-11-03T13:09:32.261Z,99993.22
2022-11-03T13:12:20.342Z,100000.38
2022-11-03T13:14:48.760Z,99995.06
2022-11-03T13:17:15.900Z,99998.69
2022-11-03T13:19:42.461Z,99982.75
2022-11-03T13:22:09.294Z,99970.34
2022-11-03T13:24:36.164Z,99975.78
2022-11-03T13:27:04.936Z,99974.94
2022-11-03T13:29:35.415Z,99963.44
2022-11-03T13:32:03.869Z,99959.94
2022-11-03T13:34:30.978Z,99945.75
2022-11-03T13:36:58.672Z,99955.59
2022-11-03T13:39:25.273Z,99952.09
2022-11-03T13:41:52.347Z,99954.78
2022-11-03T13:44:18.873Z,99950.34
2022-11-03T13:46:45.400Z,99953.03
2022-11-03T13:51:59.394Z,99940.63
2022-11-03T14:00:03.646Z,99929.31
2022-11-03T14:05:28.743Z,99921.50
2022-11-03T14:07:55.362Z,99912.72
2022-11-03T14:10:24.947Z,99905.66
2022-11-03T14:12:51.776Z,99910.19
2022-11-03T14:15:21.290Z,99904.00
2022-11-03T14:17:48.130Z,99903.19
2022-11-03T14:20:15.049Z,99897.97
2022-11-03T14:22:42.102Z,99897.16
2022-11-03T14:25:08.942Z,99899.84
2022-11-03T14:27:35.608Z,99897.25
2022-11-03T14:30:03.099Z,99892.03
2022-11-03T14:32:29.892Z,99886.75
2022-11-03T14:34:56.529Z,99877.91
2022-11-03T14:37:25.322Z,99872.69
2022-11-03T14:39:52.251Z,99873.59
2022-11-03T14:42:18.999Z,99864.75
2022-11-03T14:44:47.540Z,99856.81
2022-11-03T14:47:19.416Z,99859.53
2022-11-03T14:49:46.765Z,99851.63
2022-11-03T14:52:14.012Z,99851.63
2022-11-03T14:54:43.530Z,99829.53
2022-11-03T14:57:10.558Z,99830.47
2022-11-03T14:59:37.151Z,99814.53
2022-11-03T15:02:05.834Z,99814.59
2022-11-03T15:04:33.066Z,99798.69
2022-11-03T15:07:02.814Z,99798.69
2022-11-03T15:09:29.487Z,99804.06
2022-11-03T15:11:56.476Z,99789.91
2022-11-03T15:14:23.140Z,99785.50
2022-11-03T15:16:52.723Z,99782.91
2022-11-03T15:19:19.456Z,99776.75
2022-11-03T15:21:46.194Z,99767.97
2022-11-03T15:26:59.304Z,99757.38
2022-11-03T15:29:25.888Z,99748.56
2022-11-03T15:31:52.477Z,99750.38
2022-11-03T15:34:19.299Z,99746.88
2022-11-03T15:36:45.933Z,99743.38
2022-11-03T15:39:13.321Z,99729.22
2022-11-03T15:41:40.320Z,99727.50
2022-11-03T15:44:07.135Z,99740.81
2022-11-03T15:46:33.773Z,99732.88
2022-11-03T15:49:01.976Z,99717.88
2022-11-03T15:51:28.986Z,99725.91
2022-11-03T15:53:58.788Z,99714.38
2022-11-03T15:56:26.770Z,99729.44
2022-11-03T15:58:53.375Z,99716.19
2022-11-03T16:01:20.446Z,99709.13
2022-11-03T16:03:47.199Z,99711.78
2022-11-03T16:06:13.807Z,99717.13
2022-11-03T16:08:40.426Z,99707.44
2022-11-03T16:11:06.906Z,99695.94
2022-11-03T16:13:33.477Z,99691.53
2022-11-03T16:16:00.149Z,99691.53
2022-11-03T16:18:26.683Z,99686.25
2022-11-03T16:20:53.220Z,99679.16
2022-11-03T16:23:20.214Z,99673.84
2022-11-03T16:25:46.846Z,99691.53
2022-11-03T16:28:13.612Z,99680.94
2022-11-03T16:30:40.168Z,99678.28
2022-11-03T16:33:07.589Z,99673.88
2022-11-03T16:35:34.167Z,99666.81
2022-11-03T16:38:00.893Z,99661.53
2022-11-03T16:40:28.099Z,99659.78
2022-11-03T16:42:55.054Z,99665.13
2022-11-03T16:45:23.779Z,99646.59
2022-11-03T16:47:50.785Z,99648.31
2022-11-03T16:50:18.767Z,99643.03
2022-11-03T16:52:46.751Z,99637.72
2022-11-03T16:55:14.900Z,99638.63
2022-11-03T16:57:42.335Z,99638.63
2022-11-03T17:00:19.143Z,99631.53
2022-11-03T17:02:46.842Z,99633.31
2022-11-03T17:05:15.615Z,99621.78
2022-11-03T17:07:42.264Z,99615.59
2022-11-03T17:10:09.858Z,99603.22
2022-11-03T17:12:36.687Z,99605.84
2022-11-03T17:15:04.184Z,99593.47
2022-11-03T17:17:30.942Z,99590.81
2022-11-03T17:19:57.869Z,99584.63
2022-11-03T17:22:24.822Z,99589.91
2022-11-03T17:24:51.620Z,99580.19
2022-11-03T17:27:29.222Z,99585.47
2022-11-03T17:29:59.203Z,99582.84
2022-11-03T17:32:34.524Z,99578.38
2022-11-03T17:35:01.295Z,99580.22
2022-11-03T17:37:28.365Z,99577.59
2022-11-03T17:39:56.905Z,99579.41
2022-11-03T17:42:25.563Z,99573.25
2022-11-03T17:44:55.654Z,99584.78
2022-11-03T17:47:24.223Z,99571.53
2022-11-03T17:49:51.318Z,99577.72
2022-11-03T17:52:27.728Z,99556.47
2022-11-03T17:54:57.016Z,99561.75
2022-11-03T17:57:24.088Z,99554.66
2022-11-03T17:59:53.303Z,99541.38
2022-11-03T18:02:23.293Z,99527.25
2022-11-03T18:04:51.196Z,99521.03
2022-11-03T18:07:21.385Z,99521.00
2022-11-03T18:09:48.247Z,99511.28
2022-11-03T18:12:35.507Z,99503.34
2022-11-03T18:15:04.425Z,99495.38
2022-11-03T18:17:31.176Z,99481.22
2022-11-03T18:19:57.762Z,99475.00
2022-11-03T18:22:24.343Z,99475.03
2022-11-03T18:24:52.396Z,99479.47
2022-11-03T18:27:24.147Z,99473.28
2022-11-03T18:29:52.016Z,99474.19
2022-11-03T18:32:19.522Z,99471.53
2022-11-03T18:34:46.510Z,99468.88
2022-11-03T18:37:13.062Z,99471.56
2022-11-03T18:39:39.928Z,99462.72
2022-11-03T18:42:14.224Z,99466.28
2022-11-03T18:44:44.357Z,99466.28
2022-11-03T18:47:11.200Z,99467.19
2022-11-03T18:49:38.723Z,99464.53
2022-11-03T18:52:13.930Z,99454.00
2022-11-03T18:54:45.884Z,99444.31
2022-11-03T18:57:13.260Z,99439.06
2022-11-03T18:59:44.541Z,99421.41
2022-11-03T19:02:18.522Z,99425.84
2022-11-03T19:04:45.998Z,99419.66
2022-11-03T19:07:16.060Z,99432.91
2022-11-03T19:09:43.973Z,99414.38
2022-11-03T19:12:14.334Z,99412.56
2022-11-03T19:14:44.843Z,99409.06
2022-11-03T19:17:24.048Z,99417.00
2022-11-03T19:19:52.539Z,99418.75
2022-11-03T19:22:21.305Z,99410.81
2022-11-03T19:24:48.060Z,99406.41
2022-11-03T19:27:25.552Z,99406.44
2022-11-03T19:29:52.499Z,99400.28
2022-11-03T19:32:31.565Z,99391.53
2022-11-03T19:35:17.001Z,99385.44
2022-11-03T19:37:43.852Z,99386.41
2022-11-03T19:40:19.948Z,99383.00
2022-11-03T19:42:48.541Z,99371.56
2022-11-03T19:45:17.656Z,99361.91
2022-11-03T19:48:10.561Z,99360.16
2022-11-03T19:50:36.412Z,99347.84
2022-11-03T19:53:05.527Z,99353.13
2022-11-03T19:55:36.196Z,99342.59
2022-11-03T19:58:13.174Z,99341.72
2022-11-03T20:00:39.949Z,99333.84
2022-11-03T20:03:06.595Z,99331.19
2022-11-03T20:05:33.355Z,99319.75
2022-11-03T20:08:02.364Z,99322.34
2022-11-03T20:10:31.739Z,99320.53
2022-11-03T20:13:02.988Z,99319.63
2022-11-03T20:15:29.487Z,99326.63
2022-11-03T20:17:55.977Z,99309.81
2022-11-03T20:20:26.587Z,99315.94
2022-11-03T20:22:57.894Z,99313.25
2022-11-03T20:25:27.803Z,99307.06
2022-11-03T20:27:56.343Z,99301.75
2022-11-03T20:30:24.550Z,99307.94
2022-11-03T20:32:51.745Z,99308.81
2022-11-03T20:35:24.026Z,99309.66
2022-11-03T20:37:53.793Z,99323.75
2022-11-03T20:40:22.570Z,99324.63
2022-11-03T20:42:51.794Z,99314.91
2022-11-03T20:45:20.551Z,99314.00
2022-11-03T20:47:49.113Z,99306.03
2022-11-03T20:50:19.355Z,99296.28
2022-11-03T20:52:47.209Z,99288.31
2022-11-03T20:55:25.323Z,99277.72
2022-11-03T20:57:53.695Z,99279.47
2022-11-03T21:00:26.996Z,99276.78
2022-11-03T21:02:55.345Z,99275.00
2022-11-03T21:05:25.001Z,99267.94
2022-11-03T21:07:53.092Z,99270.59
2022-11-03T21:10:21.096Z,99279.41
2022-11-03T21:12:48.617Z,99275.88
2022-11-03T21:15:52.318Z,99284.72
2022-11-03T21:18:46.179Z,99284.72
2022-11-03T21:21:18.130Z,99289.16
2022-11-03T21:23:47.424Z,99293.59
2022-11-03T21:26:14.177Z,99304.19
2022-11-03T21:28:40.709Z,99290.97
2022-11-03T21:31:12.691Z,99304.22
2022-11-03T21:33:39.301Z,99303.31
2022-11-03T21:36:06.364Z,99303.31
2022-11-03T21:38:33.183Z,99305.91
2022-11-03T21:41:19.637Z,99312.09
2022-11-03T21:44:04.816Z,99311.22
2022-11-03T21:46:31.268Z,99314.72
2022-11-03T21:49:16.569Z,99310.31
2022-11-03T21:51:43.141Z,99306.75
2022-11-03T21:54:12.579Z,99304.97
2022-11-03T21:56:39.081Z,99306.72
2022-11-03T21:59:05.617Z,99303.16
2022-11-03T22:01:32.424Z,99294.34
2022-11-03T22:04:00.005Z,99298.81
2022-11-03T22:06:27.142Z,99292.63
2022-11-03T22:08:53.691Z,99292.66
2022-11-03T22:11:23.223Z,99295.28
2022-11-03T22:13:54.069Z,99299.69
2022-11-03T22:16:42.436Z,99303.22
2022-11-03T22:19:38.920Z,99305.88
2022-11-03T22:22:29.375Z,99287.31
2022-11-03T22:25:14.687Z,99278.50
2022-11-03T22:27:41.719Z,99280.31
2022-11-03T22:30:28.086Z,99280.31
2022-11-03T22:32:56.479Z,99280.31
2022-11-03T22:35:43.633Z,99281.22
2022-11-03T22:38:18.148Z,99287.41
2022-11-03T22:41:06.244Z,99284.81
2022-11-03T22:43:51.593Z,99273.38
2022-11-03T22:46:18.127Z,99276.91
2022-11-03T22:48:44.804Z,99269.00
2022-11-03T22:51:14.543Z,99259.31
2022-11-03T22:54:00.776Z,99255.81
2022-11-03T22:56:29.331Z,99255.84
2022-11-03T22:58:56.546Z,99240.88
2022-11-03T23:01:26.662Z,99236.50
2022-11-03T23:03:53.948Z,99230.34
2022-11-03T23:06:22.987Z,99240.94
2022-11-03T23:08:50.891Z,99236.53
2022-11-03T23:11:22.955Z,99226.78
2022-11-03T23:13:54.893Z,99227.69
2022-11-03T23:16:26.464Z,99224.16
2022-11-03T23:19:11.524Z,99227.63
2022-11-03T23:21:38.564Z,99213.50
2022-11-03T23:24:24.176Z,99215.25
2022-11-03T23:26:50.871Z,99215.25
2022-11-03T23:29:17.552Z,99217.84
2022-11-03T23:31:45.241Z,99203.72
2022-11-03T23:34:13.388Z,99204.63
2022-11-03T23:36:40.468Z,99203.69
2022-11-03T23:39:07.583Z,99205.47
2022-11-03T23:41:34.237Z,99214.25
2022-11-03T23:44:00.810Z,99203.66
2022-11-03T23:46:47.450Z,99211.56
2022-11-03T23:49:14.616Z,99203.59
2022-11-03T23:51:44.463Z,99193.88
2022-11-03T23:54:11.907Z,99184.13
2022-11-03T23:57:02.075Z,99176.19
2022-11-03T23:59:30.205Z,99170.03
